createdAt,value
2022-12-27T00:00:23.014Z,25.66
2022-12-27T00:02:27.642Z,25.66
2022-12-27T00:04:32.212Z,25.66
2022-12-27T00:06:36.621Z,25.66
2022-12-27T00:08:41.028Z,25.66
2022-12-27T00:10:45.443Z,25.67
2022-12-27T00:12:49.921Z,25.66
2022-12-27T00:14:54.323Z,25.67
2022-12-27T00:16:58.679Z,25.69
2022-12-27T00:19:03.194Z,25.7
2022-12-27T00:21:07.788Z,25.63
2022-12-27T00:23:12.177Z,25.73
2022-12-27T00:25:16.703Z,25.66
2022-12-27T00:27:21.253Z,25.68
2022-12-27T00:29:25.789Z,25.74
2022-12-27T00:31:30.167Z,25.73
2022-12-27T00:33:34.772Z,25.74
2022-12-27T00:35:39.306Z,25.76
2022-12-27T00:37:43.743Z,25.7
2022-12-27T00:39:48.248Z,25.71
2022-12-27T00:41:52.858Z,25.8
2022-12-27T00:43:57.242Z,25.81
2022-12-27T00:46:01.891Z,25.74
2022-12-27T00:48:06.611Z,25.82
2022-12-27T00:50:11.076Z,25.79
2022-12-27T00:52:15.467Z,25.8
2022-12-27T00:54:19.862Z,25.82
2022-12-27T00:56:24.290Z,25.82
2022-12-27T00:58:28.726Z,25.76
2022-12-27T01:00:33.268Z,25.84
2022-12-27T01:02:37.827Z,25.83
2022-12-27T01:04:42.369Z,25.77
2022-12-27T01:06:47.023Z,25.77
2022-12-27T01:08:51.546Z,25.8
2022-12-27T01:10:56.178Z,25.86
2022-12-27T01:13:00.631Z,25.8
2022-12-27T01:15:05.239Z,25.82
2022-12-27T01:17:09.856Z,25.8
2022-12-27T01:19:14.309Z,25.85
2022-12-27T01:21:19.110Z,25.78
2022-12-27T01:23:23.708Z,25.87
2022-12-27T01:25:28.175Z,25.82
2022-12-27T01:27:32.676Z,25.87
2022-12-27T01:29:37.088Z,25.88
2022-12-27T01:31:41.584Z,25.8
2022-12-27T01:33:46.169Z,25.9
2022-12-27T01:35:50.710Z,25.85
2022-12-27T01:37:55.130Z,25.94
2022-12-27T01:39:59.568Z,25.95
2022-12-27T01:42:03.986Z,25.97
2022-12-27T01:44:08.466Z,25.97
2022-12-27T01:46:13.024Z,25.88
2022-12-27T01:48:17.684Z,25.93
2022-12-27T01:50:22.103Z,25.85
2022-12-27T01:52:26.602Z,25.87
2022-12-27T01:54:30.991Z,25.94
2022-12-27T01:56:35.393Z,25.97
2022-12-27T01:58:39.769Z,25.97
2022-12-27T02:00:44.201Z,25.99
2022-12-27T02:02:49.036Z,25.99
2022-12-27T02:04:53.642Z,26
2022-12-27T02:06:58.071Z,26.01
2022-12-27T02:09:02.486Z,26.02
2022-12-27T02:11:06.891Z,26
2022-12-27T02:13:11.315Z,25.99
2022-12-27T02:15:15.752Z,25.98
2022-12-27T02:17:20.182Z,26
2022-12-27T02:19:24.671Z,26.01
2022-12-27T02:21:29.092Z,26.02
2022-12-27T02:23:37.838Z,26.02
2022-12-27T02:25:43.845Z,26.04
2022-12-27T02:27:48.498Z,25.97
2022-12-27T02:29:53.012Z,26
2022-12-27T02:31:57.844Z,25.98
2022-12-27T02:34:02.342Z,26.09
2022-12-27T02:36:06.791Z,26.08
2022-12-27T02:38:11.325Z,26.11
2022-12-27T02:40:15.801Z,26.03
2022-12-27T02:42:21.461Z,26.03
2022-12-27T02:44:25.898Z,26.1
2022-12-27T02:46:30.530Z,26.1
2022-12-27T02:48:35.148Z,26.02
2022-12-27T02:50:39.644Z,26.1
2022-12-27T02:52:44.033Z,26.11
2022-12-27T02:54:48.514Z,26.03
2022-12-27T02:56:53.212Z,26.04
2022-12-27T02:58:57.750Z,26.09
2022-12-27T03:01:02.188Z,26.1
2022-12-27T03:03:06.740Z,26.1
2022-12-27T03:05:11.346Z,26.08
2022-12-27T03:07:15.772Z,26.08
2022-12-27T03:09:20.287Z,26.08
2022-12-27T03:11:24.811Z,26.05
2022-12-27T03:13:29.234Z,26.04
2022-12-27T03:15:33.676Z,26.03
2022-12-27T03:17:38.374Z,25.96
2022-12-27T03:19:42.767Z,26.01
2022-12-27T03:21:47.209Z,26
2022-12-27T03:23:51.695Z,26
2022-12-27T03:25:56.157Z,26.01
2022-12-27T03:28:00.633Z,25.98
2022-12-27T03:30:05.132Z,25.97
2022-12-27T03:32:09.607Z,25.96
2022-12-27T03:34:14.007Z,25.95
2022-12-27T03:36:18.397Z,25.95
2022-12-27T03:40:14.143Z,25.91
2022-12-27T03:42:18.516Z,25.92
2022-12-27T03:44:22.923Z,25.9
2022-12-27T03:46:27.407Z,25.89
2022-12-27T03:48:31.972Z,25.91
2022-12-27T03:50:36.384Z,25.9
2022-12-27T03:52:40.762Z,25.9
2022-12-27T03:54:45.191Z,25.9
2022-12-27T03:56:49.584Z,25.9
2022-12-27T03:58:53.996Z,25.89
2022-12-27T04:00:58.413Z,25.89
2022-12-27T04:03:02.843Z,25.87
2022-12-27T04:05:07.469Z,25.86
2022-12-27T04:07:11.862Z,25.85
2022-12-27T04:09:16.297Z,25.86
2022-12-27T04:11:20.818Z,25.85
2022-12-27T04:13:25.210Z,25.8
2022-12-27T04:15:29.794Z,25.85
2022-12-27T04:17:34.448Z,25.79
2022-12-27T04:19:40.104Z,25.77
2022-12-27T04:21:44.592Z,25.75
2022-12-27T04:23:49.052Z,25.79
2022-12-27T04:25:53.644Z,25.84
2022-12-27T04:27:58.120Z,25.83
2022-12-27T04:30:02.632Z,25.83
2022-12-27T04:32:07.309Z,25.81
2022-12-27T04:34:11.774Z,25.78
2022-12-27T04:36:16.201Z,25.75
2022-12-27T04:38:20.640Z,25.66
2022-12-27T04:40:25.302Z,25.62
2022-12-27T04:42:29.903Z,25.63
2022-12-27T04:44:34.274Z,25.67
2022-12-27T04:46:38.850Z,25.68
2022-12-27T04:48:43.645Z,25.69
2022-12-27T04:50:48.121Z,25.62
2022-12-27T04:52:52.512Z,25.67
2022-12-27T04:54:56.950Z,25.67
2022-12-27T04:57:01.328Z,25.67
2022-12-27T04:59:05.787Z,25.67
2022-12-27T05:01:14.086Z,25.67
2022-12-27T05:03:18.934Z,25.71
2022-12-27T05:05:23.640Z,25.62
2022-12-27T05:07:28.086Z,25.62
2022-12-27T05:09:32.704Z,25.68
2022-12-27T05:11:37.228Z,25.7
2022-12-27T05:13:41.704Z,25.64
2022-12-27T05:15:46.215Z,25.73
2022-12-27T05:17:50.967Z,25.73
2022-12-27T05:19:55.542Z,25.74
2022-12-27T05:22:00.107Z,25.74
2022-12-27T05:24:06.048Z,25.7
2022-12-27T05:26:10.669Z,25.68
2022-12-27T05:28:15.257Z,25.69
2022-12-27T05:30:19.809Z,25.68
2022-12-27T05:32:24.449Z,25.67
2022-12-27T05:34:28.870Z,25.67
2022-12-27T05:36:33.327Z,25.66
2022-12-27T05:38:37.955Z,25.65
2022-12-27T05:40:42.352Z,25.56
2022-12-27T05:42:46.779Z,25.57
2022-12-27T05:44:51.143Z,25.64
2022-12-27T05:46:55.602Z,25.55
2022-12-27T05:49:00.198Z,25.63
2022-12-27T05:51:04.640Z,25.63
2022-12-27T05:53:09.153Z,25.64
2022-12-27T05:55:13.639Z,25.62
2022-12-27T05:57:18.082Z,25.63
2022-12-27T05:59:22.560Z,25.64
2022-12-27T06:01:27.087Z,25.59
2022-12-27T06:03:32.135Z,25.55
2022-12-27T06:05:36.867Z,25.64
2022-12-27T06:07:41.321Z,25.63
2022-12-27T06:09:45.846Z,25.63
2022-12-27T06:11:50.330Z,25.57
2022-12-27T06:13:54.744Z,25.65
2022-12-27T06:15:59.296Z,25.65
2022-12-27T06:18:04.057Z,25.66
2022-12-27T06:20:08.684Z,25.66
2022-12-27T06:22:13.107Z,25.61
2022-12-27T06:24:17.507Z,25.68
2022-12-27T06:26:21.929Z,25.68
2022-12-27T06:28:26.626Z,25.66
2022-12-27T06:30:35.931Z,25.65
2022-12-27T06:32:40.643Z,25.64
2022-12-27T06:34:45.221Z,25.64
2022-12-27T06:36:49.830Z,25.65
2022-12-27T06:38:54.298Z,25.66
2022-12-27T06:40:58.776Z,25.67
2022-12-27T06:43:03.183Z,25.66
2022-12-27T06:45:07.637Z,25.67
2022-12-27T06:47:12.307Z,25.67
2022-12-27T06:49:17.274Z,25.67
2022-12-27T06:51:21.707Z,25.58
2022-12-27T06:53:26.291Z,25.65
2022-12-27T06:55:30.722Z,25.66
2022-12-27T06:57:35.154Z,25.63
2022-12-27T06:59:39.638Z,25.57
2022-12-27T07:01:44.137Z,25.56
2022-12-27T07:03:48.829Z,25.61
2022-12-27T07:05:53.369Z,25.55
2022-12-27T07:07:57.725Z,25.56
2022-12-27T07:10:02.189Z,25.63
2022-12-27T07:12:06.734Z,25.54
2022-12-27T07:14:11.196Z,25.62
2022-12-27T07:16:15.783Z,25.61
2022-12-27T07:18:20.325Z,25.59
2022-12-27T07:20:24.836Z,25.59
2022-12-27T07:22:29.287Z,25.53
2022-12-27T07:24:33.674Z,25.58
2022-12-27T07:26:38.175Z,25.56
2022-12-27T07:28:42.587Z,25.57
2022-12-27T07:30:47.128Z,25.57
2022-12-27T07:32:51.562Z,25.51
2022-12-27T07:34:55.944Z,25.6
2022-12-27T07:37:00.378Z,25.59
2022-12-27T07:39:04.789Z,25.58
2022-12-27T07:41:09.348Z,25.57
2022-12-27T07:43:13.911Z,25.49
2022-12-27T07:45:18.324Z,25.57
2022-12-27T07:47:22.912Z,25.52
2022-12-27T07:49:27.442Z,25.58
2022-12-27T07:51:31.910Z,25.52
2022-12-27T07:53:36.379Z,25.57
2022-12-27T07:55:40.919Z,25.53
2022-12-27T07:57:45.297Z,25.54
2022-12-27T07:59:50.006Z,25.64
2022-12-27T08:01:54.700Z,25.57
2022-12-27T08:03:59.785Z,25.64
2022-12-27T08:06:04.295Z,25.67
2022-12-27T08:08:08.816Z,25.62
2022-12-27T08:10:13.397Z,25.65
2022-12-27T08:12:17.882Z,25.63
2022-12-27T08:14:22.678Z,25.71
2022-12-27T08:16:27.305Z,25.64
2022-12-27T08:18:31.944Z,25.66
2022-12-27T08:20:36.455Z,25.66
2022-12-27T08:22:40.895Z,25.65
2022-12-27T08:24:45.281Z,25.66
2022-12-27T08:26:49.795Z,25.66
2022-12-27T08:28:54.252Z,25.67
2022-12-27T08:30:59.022Z,25.69
2022-12-27T08:33:03.653Z,25.7
2022-12-27T08:35:33.346Z,25.7
2022-12-27T08:37:57.700Z,25.67
2022-12-27T08:40:03.009Z,25.65
2022-12-27T08:42:07.688Z,25.65
2022-12-27T08:44:12.132Z,25.65
2022-12-27T08:46:16.632Z,25.67
2022-12-27T08:48:21.459Z,25.68
2022-12-27T08:50:26.083Z,25.71
2022-12-27T08:52:30.553Z,25.72
2022-12-27T08:54:35.071Z,25.74
2022-12-27T08:56:39.493Z,25.76
2022-12-27T08:58:43.866Z,25.79
2022-12-27T09:00:48.281Z,25.81
2022-12-27T09:02:52.810Z,25.84
2022-12-27T09:04:57.347Z,25.87
2022-12-27T09:07:01.795Z,25.89
2022-12-27T09:09:06.177Z,25.91
2022-12-27T09:11:10.616Z,25.92
2022-12-27T09:13:15.079Z,25.94
2022-12-27T09:15:19.561Z,25.93
2022-12-27T09:17:23.991Z,25.94
2022-12-27T09:19:28.389Z,25.97
2022-12-27T09:21:32.822Z,25.97
2022-12-27T09:23:37.425Z,25.99
2022-12-27T09:25:41.861Z,26.02
2022-12-27T09:27:46.410Z,26.05
2022-12-27T09:29:50.885Z,26.06
2022-12-27T09:31:55.276Z,26.08
2022-12-27T09:33:59.817Z,26.09
2022-12-27T09:36:04.203Z,26.13
2022-12-27T09:38:08.637Z,26.16
2022-12-27T09:40:13.143Z,26.17
2022-12-27T09:42:52.788Z,26.19
2022-12-27T09:45:26.405Z,26.22
2022-12-27T09:47:30.853Z,26.28
2022-12-27T09:49:35.241Z,26.31
2022-12-27T09:51:39.628Z,26.33
2022-12-27T09:53:44.041Z,26.34
2022-12-27T09:55:48.527Z,26.34
2022-12-27T09:57:53.051Z,26.34
2022-12-27T09:59:57.448Z,26.36
2022-12-27T10:02:01.979Z,26.38
2022-12-27T10:04:06.738Z,26.36
2022-12-27T10:06:11.253Z,26.36
2022-12-27T10:08:16.707Z,26.4
2022-12-27T10:10:21.229Z,26.44
2022-12-27T10:12:29.867Z,26.44
2022-12-27T10:14:36.113Z,26.44
2022-12-27T10:16:40.514Z,26.42
2022-12-27T10:18:44.880Z,26.41
2022-12-27T10:20:49.444Z,26.43
2022-12-27T10:22:53.787Z,26.43
2022-12-27T10:25:01.324Z,26.42
2022-12-27T10:27:06.940Z,26.45
2022-12-27T10:29:11.246Z,26.47
2022-12-27T10:31:15.695Z,26.46
2022-12-27T10:33:20.295Z,26.46
2022-12-27T10:35:24.657Z,26.46
2022-12-27T10:37:29.082Z,26.43
2022-12-27T10:39:33.522Z,26.42
2022-12-27T10:41:38.004Z,26.39
2022-12-27T10:43:42.419Z,26.4
2022-12-27T10:45:46.821Z,26.39
2022-12-27T10:47:51.198Z,26.38
2022-12-27T10:49:55.842Z,26.41
2022-12-27T10:52:00.243Z,26.38
2022-12-27T10:54:04.627Z,26.39
2022-12-27T10:56:08.995Z,26.37
2022-12-27T10:58:13.465Z,26.36
2022-12-27T11:00:18.071Z,26.34
2022-12-27T11:02:22.747Z,26.33
2022-12-27T11:04:27.583Z,26.32
2022-12-27T11:06:32.009Z,26.32
2022-12-27T11:08:36.390Z,26.32
2022-12-27T11:10:40.823Z,26.3
2022-12-27T11:12:45.244Z,26.26
2022-12-27T11:14:49.651Z,26.25
2022-12-27T11:16:54.062Z,26.25
2022-12-27T11:18:58.655Z,26.26
2022-12-27T11:21:03.078Z,26.27
2022-12-27T11:23:07.541Z,26.28
2022-12-27T11:25:12.081Z,26.28
2022-12-27T11:27:16.644Z,26.29
2022-12-27T11:29:21.036Z,26.3
2022-12-27T11:31:25.512Z,26.32
2022-12-27T11:33:30.095Z,26.33
2022-12-27T11:35:34.487Z,26.33
2022-12-27T11:37:38.904Z,26.33
2022-12-27T11:39:43.317Z,26.33
2022-12-27T11:41:47.691Z,26.34
2022-12-27T11:43:52.170Z,26.35
2022-12-27T11:45:56.656Z,26.34
2022-12-27T11:48:01.139Z,26.36
2022-12-27T11:50:05.550Z,26.35
2022-12-27T11:52:09.933Z,26.35
2022-12-27T11:54:14.396Z,26.38
2022-12-27T11:56:18.896Z,26.34
2022-12-27T11:58:23.324Z,26.33
2022-12-27T12:00:27.716Z,26.34
2022-12-27T12:02:32.230Z,26.33
2022-12-27T12:04:36.765Z,26.31
2022-12-27T12:06:41.522Z,26.3
2022-12-27T12:08:45.961Z,26.27
2022-12-27T12:10:50.546Z,26.27
2022-12-27T12:12:54.952Z,26.25
2022-12-27T12:14:59.355Z,26.24
2022-12-27T12:17:03.786Z,26.21
2022-12-27T12:19:08.243Z,26.18
2022-12-27T12:21:12.645Z,26.19
2022-12-27T12:23:17.040Z,26.18
2022-12-27T12:25:21.459Z,26.2
2022-12-27T12:27:25.922Z,26.21
2022-12-27T12:29:31.315Z,26.22
2022-12-27T12:31:35.799Z,26.07
2022-12-27T12:33:40.402Z,25.95
2022-12-27T12:35:44.803Z,25.94
2022-12-27T12:37:49.250Z,25.95
2022-12-27T12:39:53.698Z,25.97
2022-12-27T12:41:58.165Z,25.97
2022-12-27T12:44:02.606Z,25.98
2022-12-27T12:46:07.105Z,26.01
2022-12-27T12:48:11.856Z,26.03
2022-12-27T12:50:16.273Z,26.04
2022-12-27T12:52:20.735Z,26.05
2022-12-27T12:54:25.291Z,26.06
2022-12-27T12:56:29.768Z,26.09
2022-12-27T12:58:34.200Z,26.11
2022-12-27T13:00:38.606Z,26.12
2022-12-27T13:02:43.206Z,26.13
2022-12-27T13:04:48.281Z,26.14
2022-12-27T13:06:52.689Z,26.14
2022-12-27T13:08:57.161Z,26.15
2022-12-27T13:11:01.728Z,26.15
2022-12-27T13:13:06.244Z,26.16
2022-12-27T13:15:10.659Z,26.16
2022-12-27T13:17:15.068Z,26.18
2022-12-27T13:19:19.592Z,26.18
2022-12-27T13:21:23.985Z,26.17
2022-12-27T13:23:28.397Z,26.17
2022-12-27T13:25:32.867Z,26.17
2022-12-27T13:27:37.363Z,26.19
2022-12-27T13:29:41.920Z,26.2
2022-12-27T13:31:46.287Z,26.19
2022-12-27T13:33:50.702Z,26.19
2022-12-27T13:35:55.144Z,26.19
2022-12-27T13:37:59.533Z,26.18
2022-12-27T13:40:03.979Z,26.19
2022-12-27T13:42:08.431Z,26.18
2022-12-27T13:44:12.805Z,26.19
2022-12-27T13:46:17.348Z,26.19
2022-12-27T13:48:21.988Z,26.19
2022-12-27T13:50:26.438Z,26.17
2022-12-27T13:52:30.866Z,26.17
2022-12-27T13:54:35.449Z,26.16
2022-12-27T13:56:55.730Z,26.17
2022-12-27T13:59:00.319Z,26.17
2022-12-27T14:01:04.914Z,26.16
2022-12-27T14:03:09.529Z,26.16
2022-12-27T14:05:14.066Z,26.14
2022-12-27T14:07:18.454Z,26.11
2022-12-27T14:09:22.776Z,26.13
2022-12-27T14:11:27.176Z,26.17
2022-12-27T14:13:31.602Z,26.19
2022-12-27T14:15:36.051Z,26.17
2022-12-27T14:17:40.683Z,26.19
2022-12-27T14:19:45.061Z,26.19
2022-12-27T14:21:49.475Z,26.19
2022-12-27T14:23:53.922Z,26.2
2022-12-27T14:25:58.313Z,26.2
2022-12-27T14:28:02.778Z,26.21
2022-12-27T14:30:07.211Z,26.2
2022-12-27T14:32:11.684Z,26.2
2022-12-27T14:34:16.095Z,26.2
2022-12-27T14:36:20.551Z,26.21
2022-12-27T14:38:25.036Z,26.18
2022-12-27T14:40:32.863Z,26.09
2022-12-27T14:42:39.185Z,26.01
2022-12-27T14:44:43.597Z,25.98
2022-12-27T14:46:47.996Z,25.98
2022-12-27T14:48:52.558Z,26.01
2022-12-27T14:50:56.952Z,26.02
2022-12-27T14:53:01.343Z,26.05
2022-12-27T14:55:05.761Z,26.06
2022-12-27T14:57:10.157Z,26.06
2022-12-27T14:59:14.614Z,26.14
2022-12-27T15:01:19.141Z,26.15
2022-12-27T15:03:27.811Z,26.17
2022-12-27T15:05:44.631Z,26.2
2022-12-27T15:07:49.280Z,26.23
2022-12-27T15:09:53.687Z,26.24
2022-12-27T15:11:58.124Z,26.25
2022-12-27T15:14:02.604Z,26.26
2022-12-27T15:16:11.724Z,26.28
2022-12-27T15:18:19.739Z,26.31
2022-12-27T15:20:24.143Z,26.32
2022-12-27T15:22:28.557Z,26.33
2022-12-27T15:24:33.053Z,26.34
2022-12-27T15:26:37.481Z,26.36
2022-12-27T15:28:41.953Z,26.37
2022-12-27T15:30:46.387Z,26.39
2022-12-27T15:32:53.153Z,26.33
2022-12-27T15:34:58.114Z,26.38
2022-12-27T15:37:02.547Z,26.38
2022-12-27T15:39:07.038Z,26.38
2022-12-27T15:41:11.557Z,26.41
2022-12-27T15:43:15.946Z,26.43
2022-12-27T15:45:20.367Z,26.43
2022-12-27T15:47:24.803Z,26.44
2022-12-27T15:49:29.191Z,26.46
2022-12-27T15:51:33.660Z,26.46
2022-12-27T15:53:38.119Z,26.46
2022-12-27T15:55:42.678Z,26.46
2022-12-27T15:57:47.132Z,26.47
2022-12-27T15:59:51.522Z,26.47
2022-12-27T16:01:56.045Z,26.5
2022-12-27T16:04:00.871Z,26.5
2022-12-27T16:06:05.319Z,26.51
2022-12-27T16:08:09.743Z,26.51
2022-12-27T16:10:14.259Z,26.52
2022-12-27T16:12:18.706Z,26.53
2022-12-27T16:14:23.133Z,26.53
2022-12-27T16:16:27.568Z,26.34
2022-12-27T16:18:32.361Z,26.13
2022-12-27T16:20:36.886Z,25.92
2022-12-27T16:22:41.301Z,25.78
2022-12-27T16:24:45.734Z,25.71
2022-12-27T16:26:50.125Z,25.69
2022-12-27T16:28:54.614Z,25.65
2022-12-27T16:30:59.102Z,25.63
2022-12-27T16:33:03.885Z,25.65
2022-12-27T16:35:08.337Z,25.71
2022-12-27T16:37:12.769Z,25.76
2022-12-27T16:39:17.187Z,25.83
2022-12-27T16:41:21.575Z,25.86
2022-12-27T16:43:26.088Z,25.89
2022-12-27T16:45:30.497Z,25.94
2022-12-27T16:47:34.953Z,25.98
2022-12-27T16:49:39.472Z,25.99
2022-12-27T16:51:43.939Z,26
2022-12-27T16:53:48.367Z,26.02
2022-12-27T16:55:52.790Z,26.02
2022-12-27T16:57:57.216Z,26.05
2022-12-27T17:00:01.680Z,26.07
2022-12-27T17:02:06.238Z,26.11
2022-12-27T17:04:11.052Z,26.13
2022-12-27T17:06:32.887Z,26.15
2022-12-27T17:08:38.723Z,26.17
2022-12-27T17:10:43.240Z,26.19
2022-12-27T17:12:47.633Z,26.2
2022-12-27T17:14:52.084Z,26.22
2022-12-27T17:16:56.533Z,26.24
2022-12-27T17:19:01.488Z,26.26
2022-12-27T17:21:05.932Z,26.27
2022-12-27T17:23:10.373Z,26.26
2022-12-27T17:25:14.836Z,26.27
2022-12-27T17:27:19.269Z,26.29
2022-12-27T17:29:29.428Z,26.29
2022-12-27T17:31:34.240Z,26.31
2022-12-27T17:33:38.722Z,26.31
2022-12-27T17:35:43.165Z,26.29
2022-12-27T17:37:47.578Z,26.28
2022-12-27T17:39:51.974Z,26.31
2022-12-27T17:41:56.530Z,26.31
2022-12-27T17:44:00.950Z,26.32
2022-12-27T17:46:05.493Z,26.3
2022-12-27T17:48:10.174Z,26.3
2022-12-27T17:50:14.617Z,26.3
2022-12-27T17:52:19.081Z,26.3
2022-12-27T17:54:23.534Z,26.3
2022-12-27T17:56:28.136Z,26.31
2022-12-27T17:58:32.655Z,26.3
2022-12-27T18:00:37.163Z,26.32
2022-12-27T18:02:41.963Z,26.32
2022-12-27T18:04:46.862Z,26.32
2022-12-27T18:06:51.302Z,26.32
2022-12-27T18:08:55.743Z,26.32
2022-12-27T18:11:00.119Z,26.32
2022-12-27T18:13:04.536Z,26.33
2022-12-27T18:15:09.021Z,26.32
2022-12-27T18:17:13.392Z,26.33
2022-12-27T18:19:18.896Z,26.31
2022-12-27T18:21:23.425Z,26.31
2022-12-27T18:23:27.856Z,26.31
2022-12-27T18:25:32.345Z,26.33
2022-12-27T18:27:36.856Z,26.34
2022-12-27T18:29:41.222Z,26.35
2022-12-27T18:31:45.725Z,26.36
2022-12-27T18:33:51.318Z,26.39
2022-12-27T18:35:55.876Z,26.4
2022-12-27T18:38:00.356Z,26.43
2022-12-27T18:40:04.850Z,26.43
2022-12-27T18:42:09.436Z,26.44
2022-12-27T18:44:13.887Z,26.44
2022-12-27T18:46:23.958Z,26.46
2022-12-27T18:48:28.523Z,26.43
2022-12-27T18:50:32.950Z,26.29
2022-12-27T18:52:37.431Z,26.11
2022-12-27T18:54:41.904Z,25.94
2022-12-27T18:56:46.351Z,25.69
2022-12-27T18:58:50.870Z,25.61
2022-12-27T19:00:55.351Z,25.51
2022-12-27T19:03:00.007Z,25.38
2022-12-27T19:05:04.562Z,25.29
2022-12-27T19:07:08.985Z,25.17
2022-12-27T19:09:13.531Z,25.07
2022-12-27T19:11:18.699Z,25.01
2022-12-27T19:13:23.100Z,24.94
2022-12-27T19:15:27.645Z,24.89
2022-12-27T19:17:32.021Z,24.83
2022-12-27T19:19:36.496Z,24.8
2022-12-27T19:21:41.079Z,24.76
2022-12-27T19:23:45.551Z,24.71
2022-12-27T19:25:51.410Z,24.66
2022-12-27T19:27:55.835Z,24.74
2022-12-27T19:30:00.291Z,24.86
2022-12-27T19:32:04.836Z,25
2022-12-27T19:34:09.747Z,25.13
2022-12-27T19:36:14.158Z,25.25
2022-12-27T19:38:18.757Z,25.36
2022-12-27T19:40:23.287Z,25.44
2022-12-27T19:42:27.770Z,25.52
2022-12-27T19:44:32.227Z,25.6
2022-12-27T19:46:36.720Z,25.67
2022-12-27T19:48:41.202Z,25.74
2022-12-27T19:50:45.589Z,25.79
2022-12-27T19:52:50.034Z,25.84
2022-12-27T19:54:54.385Z,25.88
2022-12-27T19:56:58.832Z,25.91
2022-12-27T19:59:03.273Z,25.94
2022-12-27T20:01:07.813Z,25.98
2022-12-27T20:03:12.579Z,26.01
2022-12-27T20:05:17.486Z,26.01
2022-12-27T20:08:30.652Z,26.03
2022-12-27T20:10:35.154Z,26.08
2022-12-27T20:12:39.772Z,26.09
2022-12-27T20:14:44.232Z,26.05
2022-12-27T20:16:48.797Z,25.99
2022-12-27T20:18:53.539Z,25.98
2022-12-27T20:20:58.052Z,26.02
2022-12-27T20:23:02.466Z,26.05
2022-12-27T20:25:06.996Z,26.06
2022-12-27T20:27:11.494Z,26.09
2022-12-27T20:29:15.947Z,26.09
2022-12-27T20:31:20.549Z,26.16
2022-12-27T20:33:25.168Z,26.19
2022-12-27T20:35:29.676Z,26.2
2022-12-27T20:37:34.226Z,26.3
2022-12-27T20:39:38.914Z,26.31
2022-12-27T20:41:43.339Z,26.27
2022-12-27T20:43:47.762Z,26.32
2022-12-27T20:45:52.230Z,26.29
2022-12-27T20:47:56.771Z,26.23
2022-12-27T20:50:01.245Z,26.22
2022-12-27T20:52:05.723Z,26.29
2022-12-27T20:54:10.266Z,26.23
2022-12-27T20:56:14.694Z,26.24
2022-12-27T20:58:19.147Z,26.23
2022-12-27T21:00:23.571Z,26.28
2022-12-27T21:02:29.521Z,26.35
2022-12-27T21:04:34.562Z,26.28
2022-12-27T21:06:39.018Z,26.29
2022-12-27T21:08:48.098Z,26.23
2022-12-27T21:11:00.932Z,26.24
2022-12-27T21:13:05.359Z,26.28
2022-12-27T21:15:09.772Z,26.3
2022-12-27T21:17:14.233Z,26.28
2022-12-27T21:19:18.952Z,26.29
2022-12-27T21:21:26.861Z,26.27
2022-12-27T21:23:32.597Z,26.28
2022-12-27T21:25:37.056Z,26.27
2022-12-27T21:27:41.498Z,26.3
2022-12-27T21:29:46.039Z,26.29
2022-12-27T21:31:50.478Z,26.23
2022-12-27T21:33:54.867Z,26.27
2022-12-27T21:35:59.370Z,26.31
2022-12-27T21:38:03.846Z,26.23
2022-12-27T21:40:08.277Z,26.23
2022-12-27T21:42:12.893Z,26.21
2022-12-27T21:44:17.361Z,26.21
2022-12-27T21:46:21.873Z,26.28
2022-12-27T21:48:26.697Z,26.29
2022-12-27T21:50:35.469Z,26.29
2022-12-27T21:52:41.582Z,26.31
2022-12-27T21:54:46.020Z,26.3
2022-12-27T21:56:50.430Z,26.34
2022-12-27T21:58:54.894Z,26.3
2022-12-27T22:01:01.452Z,26.34
2022-12-27T22:03:12.792Z,26.35
2022-12-27T22:05:18.256Z,26.38
2022-12-27T22:07:22.692Z,26.35
2022-12-27T22:09:27.195Z,26.39
2022-12-27T22:11:31.609Z,26.35
2022-12-27T22:13:36.031Z,26.35
2022-12-27T22:15:40.493Z,26.38
2022-12-27T22:17:45.063Z,26.35
2022-12-27T22:19:49.485Z,26.37
2022-12-27T22:21:53.908Z,26.36
2022-12-27T22:23:58.333Z,26.37
2022-12-27T22:26:02.726Z,26.36
2022-12-27T22:28:07.131Z,26.32
2022-12-27T22:30:11.593Z,26.37
2022-12-27T22:32:16.041Z,26.29
2022-12-27T22:34:20.439Z,26.34
2022-12-27T22:36:24.849Z,26.35
2022-12-27T22:38:29.303Z,26.33
2022-12-27T22:40:41.010Z,26.37
2022-12-27T22:42:50.755Z,26.32
2022-12-27T22:44:55.161Z,26.25
2022-12-27T22:47:25.497Z,26.23
2022-12-27T22:49:31.976Z,26.23
2022-12-27T22:51:36.424Z,26.22
2022-12-27T22:53:40.826Z,26.19
2022-12-27T22:55:45.279Z,26.23
2022-12-27T22:57:49.709Z,26.21
2022-12-27T22:59:54.131Z,26.2
2022-12-27T23:01:58.598Z,26.14
2022-12-27T23:04:03.379Z,26.17
2022-12-27T23:06:08.100Z,26.16
2022-12-27T23:08:12.494Z,26.17
2022-12-27T23:10:16.978Z,26.16
2022-12-27T23:12:21.424Z,26.18
2022-12-27T23:14:25.833Z,26.16
2022-12-27T23:16:30.373Z,26.17
2022-12-27T23:18:34.927Z,26.19
2022-12-27T23:20:39.311Z,26.09
2022-12-27T23:23:28.107Z,26.19
2022-12-27T23:25:32.573Z,26.15
2022-12-27T23:27:36.985Z,26.2
2022-12-27T23:29:41.394Z,26.21
2022-12-27T23:31:54.027Z,26.16
2022-12-27T23:34:00.041Z,26.23
2022-12-27T23:36:04.443Z,26.25
2022-12-27T23:38:08.946Z,26.27
2022-12-27T23:40:13.346Z,26.27
2022-12-27T23:42:17.824Z,26.23
2022-12-27T23:44:26.467Z,26.21
2022-12-27T23:46:38.540Z,26.25
2022-12-27T23:48:43.110Z,26.23
2022-12-27T23:50:47.495Z,26.19
2022-12-27T23:52:51.993Z,26.23
2022-12-27T23:54:56.388Z,26.26
2022-12-27T23:57:19.746Z,26.2
2022-12-27T23:59:26.378Z,26.17
